Birch Island, Canada
Current Conditions -  °F | °C
As of 12:00 AM on Sunday 26 Oct 2014 (Local Time) from CYZE Reporting Station
Broken Clouds Broken Clouds  
Wind Chill: 42°   Ceiling: 7500
Heat Index: 48°   Visibility: 9mi
Dew Point: 37°   Wind: 17mph
Humidity: 66%   Direction: 290°WNW
Pressure: 29.62"   Gusts: 26mph
Location:  46.05°N, 81.78°W
Report Text: CYZE 260400Z AUTO 29015G23KT 9SM BKN075 09/03 A2962 RMK SLP032
Loading
Personal Weather Stations






























Interactive Weather Map
Tropical Storm Tracking
New forecast layout! Learn more

10-Day Weather Forecast

Advertisements
Track Severe Weather on mobile